Time;durP1;ratioP1;P1;durP2;ratioP2;P2;SDS_P1;SDS_P2;PMS_P1;PMS_P2;Temp;Humidity;BMP_temperature;BMP_pressure;BME280_temperature;BME280_humidity;BME280_pressure;Samples;Min_cycle;Max_cycle;Signal;HPM_P1;HPM_P2
2022/07/11 00:02:13;;;;;;;3.90;1.38;;;;;;;54.29;2.58;100720.97;5053165;28;20475;-59
2022/07/11 00:04:42;;;;;;;4.20;1.10;;;;;;;54.23;3.20;100714.53;5053305;28;20064;-59
2022/07/11 00:07:09;;;;;;;6.28;1.30;;;;;;;54.36;2.36;100711.50;5052997;28;20116;-59
2022/07/11 00:09:36;;;;;;;9.73;1.60;;;;;;;52.57;3.73;100706.47;5051263;28;20025;-59
2022/07/11 00:12:03;;;;;;;7.13;1.52;;;;;;;51.02;4.43;100712.34;5052967;28;20107;-59
2022/07/11 00:14:30;;;;;;;3.10;1.20;;;;;;;52.09;3.78;100706.38;5052881;28;20096;-59
2022/07/11 00:16:57;;;;;;;8.38;1.70;;;;;;;51.70;4.11;100701.28;5052463;28;20037;-59
2022/07/11 00:19:24;;;;;;;2.72;1.35;;;;;;;53.03;2.91;100702.03;5052776;28;20021;-58
2022/07/11 00:21:51;;;;;;;6.07;1.50;;;;;;;53.07;3.01;100685.03;5052882;28;20052;-59
2022/07/11 00:24:20;;;;;;;4.15;1.25;;;;;;;51.74;3.92;100683.59;5052835;28;20025;-59
2022/07/11 00:26:48;;;;;;;3.05;1.15;;;;;;;50.56;4.39;100693.25;5052670;28;20040;-60
2022/07/11 00:29:16;;;;;;;5.78;1.30;;;;;;;51.01;4.19;100688.41;5052851;28;20032;-58
2022/07/11 00:31:42;;;;;;;4.85;1.55;;;;;;;51.04;3.98;100687.34;5051977;28;20123;-59
2022/07/11 00:34:09;;;;;;;6.45;1.60;;;;;;;51.86;4.50;100679.13;5052790;28;20028;-59
2022/07/11 00:36:36;;;;;;;27.65;2.90;;;;;;;51.05;4.62;100677.31;5052319;28;20045;-59
2022/07/11 00:39:03;;;;;;;34.38;2.80;;;;;;;51.59;4.08;100679.06;5052365;28;20100;-58
2022/07/11 00:41:30;;;;;;;5.82;1.33;;;;;;;51.17;4.52;100668.44;5052318;28;20044;-59
2022/07/11 00:43:59;;;;;;;7.13;1.38;;;;;;;51.12;4.39;100666.41;5052593;28;20467;-59
2022/07/11 00:46:28;;;;;;;5.32;1.40;;;;;;;51.61;3.94;100661.91;5052394;28;20045;-60
2022/07/11 00:48:57;;;;;;;5.15;1.23;;;;;;;51.14;4.04;100667.44;5052698;28;20044;-58
2022/07/11 00:51:25;;;;;;;3.00;1.50;;;;;;;50.88;4.34;100668.09;5052092;28;20033;-59
2022/07/11 00:53:57;;;;;;;3.75;1.25;;;;;;;50.34;4.63;100648.81;5052321;28;20036;-60
2022/07/11 00:56:27;;;;;;;9.73;1.60;;;;;;;49.87;4.68;100657.72;5052453;28;20037;-59
2022/07/11 00:58:54;;;;;;;6.20;1.50;;;;;;;50.27;4.86;100654.41;5052404;28;20047;-59
2022/07/11 01:01:23;;;;;;;5.57;1.50;;;;;;;50.39;4.85;100656.63;5052344;28;20021;-59
2022/07/11 01:03:50;;;;;;;6.50;1.48;;;;;;;50.26;5.44;100652.84;5052302;28;20029;-59
2022/07/11 01:06:17;;;;;;;11.50;1.65;;;;;;;50.44;4.50;100652.88;5052130;28;20021;-58
2022/07/11 01:08:44;;;;;;;8.52;1.38;;;;;;;50.46;4.55;100650.25;5051876;28;20442;-59
2022/07/11 01:11:18;;;;;;;2.80;1.25;;;;;;;49.64;4.58;100650.59;5052219;28;20112;-59
2022/07/11 01:13:46;;;;;;;4.90;1.30;;;;;;;48.87;4.99;100647.78;5052260;28;20078;-58
2022/07/11 01:16:22;;;;;;;6.10;1.33;;;;;;;49.21;4.72;100648.34;5052211;28;20025;-59
2022/07/11 01:18:54;;;;;;;71.07;5.72;;;;;;;48.89;5.09;100650.91;5052165;28;20048;-58
2022/07/11 01:21:24;;;;;;;9.37;1.33;;;;;;;48.97;5.33;100651.13;5052259;28;20120;-58
2022/07/11 01:23:54;;;;;;;4.20;1.60;;;;;;;48.99;5.01;100648.50;5052087;28;20472;-59
2022/07/11 01:26:21;;;;;;;7.13;1.35;;;;;;;48.68;5.36;100647.63;5052154;28;20383;-59
2022/07/11 01:28:49;;;;;;;2.38;0.93;;;;;;;48.73;5.23;100643.94;5053109;28;20091;-59
2022/07/11 01:31:16;;;;;;;5.55;1.40;;;;;;;48.33;5.77;100641.75;5055624;28;20033;-59
2022/07/11 01:33:43;;;;;;;7.20;1.50;;;;;;;47.86;5.75;100638.75;5055696;28;20029;-59
2022/07/11 01:36:09;;;;;;;4.85;1.30;;;;;;;48.02;5.90;100637.91;5055550;28;20048;-59
2022/07/11 01:38:36;;;;;;;9.98;1.75;;;;;;;47.93;5.49;100635.31;5055143;28;20090;-58
2022/07/11 01:41:03;;;;;;;8.00;1.63;;;;;;;47.38;5.62;100636.91;5055770;28;20059;-60
2022/07/11 01:43:30;;;;;;;5.43;1.55;;;;;;;46.96;6.36;100640.81;5055613;28;20407;-59
2022/07/11 01:45:57;;;;;;;4.45;1.42;;;;;;;46.92;6.21;100638.19;5054262;28;20025;-61
2022/07/11 01:48:24;;;;;;;5.05;1.42;;;;;;;46.78;6.59;100647.84;5055689;28;20021;-61
2022/07/11 01:50:51;;;;;;;15.38;1.77;;;;;;;46.52;6.66;100641.47;5055476;28;20065;-58
2022/07/11 01:53:18;;;;;;;24.27;2.40;;;;;;;46.31;7.11;100647.34;5055854;28;20052;-59
2022/07/11 01:55:45;;;;;;;7.90;1.60;;;;;;;46.12;7.07;100642.56;5055360;28;20116;-58
2022/07/11 01:58:11;;;;;;;7.70;1.80;;;;;;;46.02;7.31;100639.13;5055517;28;20476;-61
2022/07/11 02:00:38;;;;;;;5.03;1.30;;;;;;;45.70;6.50;100636.28;5055015;28;20044;-58
2022/07/11 02:03:05;;;;;;;8.07;1.35;;;;;;;45.55;6.95;100638.50;5055390;28;20029;-58
2022/07/11 02:05:31;;;;;;;13.23;1.60;;;;;;;45.29;6.73;100632.03;5055040;28;20041;-58
2022/07/11 02:08:13;;;;;;;6.55;1.40;;;;;;;45.13;7.06;100642.81;5055075;28;20491;-58
2022/07/11 02:10:48;;;;;;;4.85;1.60;;;;;;;44.74;7.05;100644.50;5055190;28;20049;-60
2022/07/11 02:13:23;;;;;;;5.65;1.30;;;;;;;44.35;7.05;100647.66;5055032;28;20037;-58
2022/07/11 02:15:50;;;;;;;4.65;1.38;;;;;;;44.04;7.47;100647.47;5054908;28;20033;-58
2022/07/11 02:18:18;;;;;;;14.85;2.35;;;;;;;43.72;8.24;100642.31;5053723;28;20033;-58
2022/07/11 02:20:46;;;;;;;6.82;1.80;;;;;;;43.48;8.05;100646.59;5053628;28;20152;-60
2022/07/11 02:23:13;;;;;;;6.43;1.40;;;;;;;43.08;8.04;100653.66;5055017;28;20032;-60
2022/07/11 02:25:39;;;;;;;16.95;2.25;;;;;;;42.77;8.52;100652.03;5054586;28;20087;-59
2022/07/11 02:28:10;;;;;;;52.60;4.20;;;;;;;42.51;8.60;100650.97;5053898;28;20032;-60
2022/07/11 02:30:38;;;;;;;13.57;1.83;;;;;;;42.24;8.84;100655.59;5054439;28;20120;-60
2022/07/11 02:33:07;;;;;;;10.63;1.90;;;;;;;41.93;8.83;100658.75;5054887;28;20043;-61
2022/07/11 02:35:35;;;;;;;25.48;2.10;;;;;;;41.60;8.90;100661.56;5054437;28;20033;-61
2022/07/11 02:38:02;;;;;;;22.63;2.45;;;;;;;41.44;9.29;100656.22;5054096;28;20115;-60
2022/07/11 02:40:29;;;;;;;9.90;1.77;;;;;;;41.30;9.17;100654.88;5054269;28;20040;-60
2022/07/11 02:42:56;;;;;;;13.82;2.20;;;;;;;41.06;9.46;100654.72;5054519;28;20029;-60
2022/07/11 02:45:23;;;;;;;18.23;2.80;;;;;;;40.80;9.43;100642.06;5054498;28;20111;-60
2022/07/11 02:47:50;;;;;;;17.55;2.55;;;;;;;40.61;9.67;100652.66;5054548;28;20102;-61
2022/07/11 02:50:16;;;;;;;17.88;2.60;;;;;;;40.34;9.47;100650.53;5054247;28;20037;-60
2022/07/11 02:52:43;;;;;;;10.30;2.00;;;;;;;40.14;9.98;100658.72;5054361;28;20398;-60
2022/07/11 02:55:11;;;;;;;6.18;1.92;;;;;;;39.94;9.69;100658.34;5053995;28;20091;-60
2022/07/11 02:57:39;;;;;;;256.15;14.07;;;;;;;39.78;16.33;100663.03;5052918;28;20035;-60
2022/07/11 03:00:08;;;;;;;108.03;7.70;;;;;;;39.72;12.51;100664.91;5052350;28;20120;-60
2022/07/11 03:02:34;;;;;;;31.88;4.18;;;;;;;39.35;17.47;100660.25;5053220;28;20120;-60
2022/07/11 03:05:01;;;;;;;76.90;7.50;;;;;;;39.05;14.68;100671.09;5053956;28;20080;-60
2022/07/11 03:07:28;;;;;;;30.27;4.90;;;;;;;38.87;12.87;100670.94;5053503;28;20111;-60
2022/07/11 03:09:55;;;;;;;39.90;5.78;;;;;;;38.68;14.11;100670.78;5053893;28;20072;-59
2022/07/11 03:12:22;;;;;;;31.25;4.40;;;;;;;38.52;14.13;100682.28;5053510;28;20028;-61
2022/07/11 03:14:49;;;;;;;25.58;3.75;;;;;;;38.46;14.65;100681.28;5053651;28;20082;-61
2022/07/11 03:17:19;;;;;;;25.55;3.58;;;;;;;38.30;12.57;100673.72;5053791;28;20025;-60
2022/07/11 03:19:49;;;;;;;14.98;3.50;;;;;;;38.23;12.30;100673.16;5053693;28;20087;-60
2022/07/11 03:22:17;;;;;;;16.38;3.03;;;;;;;38.22;12.51;100682.91;5053624;28;20037;-59
2022/07/11 03:24:44;;;;;;;21.48;3.10;;;;;;;38.18;14.34;100693.56;5053676;28;20509;-60
2022/07/11 03:27:11;;;;;;;21.98;3.13;;;;;;;38.08;12.72;100690.66;5053513;28;20391;-60
2022/07/11 03:29:38;;;;;;;16.45;3.35;;;;;;;37.93;13.76;100689.50;5052273;28;20025;-60
2022/07/11 03:32:05;;;;;;;17.88;3.33;;;;;;;37.81;14.32;100693.13;5052311;28;20059;-59
2022/07/11 03:34:32;;;;;;;15.27;3.50;;;;;;;37.76;15.40;100703.00;5053260;28;20017;-62
2022/07/11 03:37:01;;;;;;;16.60;3.80;;;;;;;37.60;18.62;100705.91;5050134;28;20052;-61
2022/07/11 03:39:28;;;;;;;19.00;3.75;;;;;;;37.54;14.27;100699.22;5051293;28;20034;-59
2022/07/11 03:41:55;;;;;;;15.68;6.07;;;;;;;37.62;14.64;100703.41;5053104;28;20064;-60
2022/07/11 03:44:22;;;;;;;28.02;7.60;;;;;;;37.72;14.11;100708.00;5052194;28;20017;-60
2022/07/11 03:46:48;;;;;;;22.67;3.92;;;;;;;37.96;13.33;100722.66;5052557;28;20033;-61
2022/07/11 03:49:15;;;;;;;20.63;4.22;;;;;;;37.81;13.75;100718.66;5051266;28;20487;-60
2022/07/11 03:51:42;;;;;;;28.02;5.75;;;;;;;38.15;12.67;100728.56;5050476;28;20099;-61
2022/07/11 03:54:09;;;;;;;47.20;7.38;;;;;;;38.50;11.86;100732.28;5052578;28;20048;-60
2022/07/11 03:56:36;;;;;;;44.85;6.70;;;;;;;38.68;11.65;100738.19;5052467;28;20048;-60
2022/07/11 03:59:02;;;;;;;49.90;6.95;;;;;;;38.66;12.55;100740.69;5052608;28;20036;-60
2022/07/11 04:01:29;;;;;;;30.65;5.38;;;;;;;38.40;14.38;100743.53;5052018;28;20113;-59
2022/07/11 04:03:56;;;;;;;28.67;5.05;;;;;;;38.18;15.30;100741.84;5034695;28;20033;-60
2022/07/11 04:06:22;;;;;;;19.25;4.85;;;;;;;38.16;15.86;100744.34;5031427;28;20037;-60
2022/07/11 04:08:49;;;;;;;28.65;4.50;;;;;;;38.10;15.78;100739.22;5043990;28;20103;-60
2022/07/11 04:11:16;;;;;;;24.33;4.60;;;;;;;37.92;16.86;100739.00;5051962;28;20041;-60
2022/07/11 04:13:43;;;;;;;18.95;3.50;;;;;;;37.87;15.93;100752.94;5067702;28;20029;-60
2022/07/11 04:16:09;;;;;;;28.02;3.88;;;;;;;37.88;16.01;100749.66;5051346;28;20039;-60
2022/07/11 04:18:36;;;;;;;15.93;3.17;;;;;;;37.76;16.39;100751.25;5052607;28;20049;-59
2022/07/11 04:21:03;;;;;;;16.58;3.35;;;;;;;37.63;16.57;100743.91;5052639;28;20075;-60
2022/07/11 04:23:29;;;;;;;27.85;3.67;;;;;;;37.46;16.58;100748.88;5052283;28;20017;-60
2022/07/11 04:25:56;;;;;;;15.02;4.07;;;;;;;37.55;16.81;100748.22;5050691;28;20059;-60
2022/07/11 04:28:23;;;;;;;19.50;3.20;;;;;;;37.62;17.08;100757.31;5066092;28;20021;-60
2022/07/11 04:30:49;;;;;;;20.02;3.80;;;;;;;37.61;17.09;100758.56;5049338;28;20067;-60
2022/07/11 04:33:16;;;;;;;18.10;3.63;;;;;;;37.40;16.66;100759.97;5049972;28;20079;-60
2022/07/11 04:35:43;;;;;;;19.83;3.90;;;;;;;37.28;16.98;100763.56;5049722;28;20056;-60
2022/07/11 04:38:09;;;;;;;22.17;3.75;;;;;;;36.98;18.17;100767.56;5050674;28;20116;-62
2022/07/11 04:40:36;;;;;;;14.13;3.60;;;;;;;36.75;17.74;100768.56;5052247;28;20041;-60
2022/07/11 04:43:02;;;;;;;17.25;4.22;;;;;;;36.62;17.86;100779.00;5052506;28;20461;-60
2022/07/11 04:45:29;;;;;;;19.13;3.78;;;;;;;36.53;19.01;100770.34;5052404;28;20033;-60
2022/07/11 04:47:56;;;;;;;21.95;4.18;;;;;;;36.66;18.10;100774.06;5051278;28;20477;-60
2022/07/11 04:50:22;;;;;;;21.55;5.35;;;;;;;36.94;17.98;100785.91;5052175;28;20045;-62
2022/07/11 04:52:49;;;;;;;35.30;5.07;;;;;;;36.87;17.63;100786.91;5052445;28;20095;-61
2022/07/11 04:55:17;;;;;;;29.48;5.20;;;;;;;36.58;18.21;100783.97;5049647;28;20049;-61
2022/07/11 04:57:44;;;;;;;23.85;4.88;;;;;;;36.41;18.34;100785.19;5052178;28;20032;-60
2022/07/11 05:00:11;;;;;;;27.15;5.45;;;;;;;36.30;18.40;100782.59;5052397;28;20109;-60
2022/07/11 05:02:37;;;;;;;38.80;6.22;;;;;;;36.17;18.41;100784.53;5052925;28;20042;-62
2022/07/11 05:05:04;;;;;;;36.72;6.55;;;;;;;36.10;18.89;100782.66;5056708;28;20029;-60
2022/07/11 05:07:31;;;;;;;42.92;6.07;;;;;;;36.02;18.73;100792.53;5055797;28;20104;-60
2022/07/11 05:09:58;;;;;;;42.90;7.38;;;;;;;35.99;18.24;100787.75;5056353;28;20033;-59
2022/07/11 05:12:24;;;;;;;40.45;6.88;;;;;;;35.85;18.57;100788.84;5056286;28;20075;-60
2022/07/11 05:14:51;;;;;;;33.55;6.82;;;;;;;35.77;18.98;100790.22;5071297;28;20344;-60
2022/07/11 05:17:18;;;;;;;47.42;7.35;;;;;;;35.66;18.78;100790.44;5056148;28;20025;-60
2022/07/11 05:19:45;;;;;;;49.63;8.32;;;;;;;35.64;18.47;100792.91;5056027;28;20064;-60
2022/07/11 05:22:11;;;;;;;44.17;10.30;;;;;;;35.65;19.02;100796.53;5056119;28;20025;-61
2022/07/11 05:24:38;;;;;;;34.28;7.93;;;;;;;35.58;19.01;100789.00;5056038;28;20120;-60
2022/07/11 05:27:05;;;;;;;24.88;7.00;;;;;;;35.47;18.73;100790.44;5055976;28;20029;-60
2022/07/11 05:29:31;;;;;;;29.40;7.85;;;;;;;35.34;19.32;100793.06;5055931;28;20033;-60
2022/07/11 05:31:58;;;;;;;39.60;8.68;;;;;;;35.33;17.47;100785.81;5055702;28;20029;-60
2022/07/11 05:34:25;;;;;;;33.67;7.45;;;;;;;35.35;16.66;100789.03;5056004;28;20067;-60
2022/07/11 05:36:53;;;;;;;34.50;8.90;;;;;;;35.36;15.26;100790.63;5054181;28;20044;-60
2022/07/11 05:39:19;;;;;;;41.60;7.70;;;;;;;35.28;14.95;100789.16;5055371;28;20068;-59
2022/07/11 05:41:46;;;;;;;39.58;7.85;;;;;;;35.29;15.90;100797.22;5055640;28;20041;-61
2022/07/11 05:44:13;;;;;;;27.63;7.35;;;;;;;35.32;16.28;100790.69;5055783;28;20029;-60
2022/07/11 05:46:40;;;;;;;27.08;6.82;;;;;;;35.24;16.09;100794.09;5055619;28;20027;-60
2022/07/11 05:49:10;;;;;;;38.97;7.20;;;;;;;35.23;15.70;100804.59;5055829;28;20166;-60
2022/07/11 05:51:36;;;;;;;22.73;6.55;;;;;;;35.12;15.95;100801.16;5055337;28;20047;-60
2022/07/11 05:54:03;;;;;;;32.35;7.03;;;;;;;35.05;14.78;100796.44;5055116;28;20475;-60
2022/07/11 05:56:30;;;;;;;35.08;6.40;;;;;;;34.97;14.38;100797.78;5054900;28;20021;-60
2022/07/11 05:58:57;;;;;;;34.80;7.35;;;;;;;34.93;13.87;100799.88;5054312;28;20456;-60
2022/07/11 06:01:26;;;;;;;75.95;8.60;;;;;;;34.84;16.10;100800.41;5054338;28;20031;-60
2022/07/11 06:03:53;;;;;;;55.75;7.55;;;;;;;34.87;13.78;100793.16;5054567;28;20044;-60
2022/07/11 06:06:19;;;;;;;23.13;5.45;;;;;;;35.07;12.74;100794.00;5051766;28;20048;-59
2022/07/11 06:08:46;;;;;;;26.23;5.32;;;;;;;35.05;12.87;100793.63;5052879;28;20045;-60
2022/07/11 06:11:14;;;;;;;23.75;4.70;;;;;;;35.07;11.31;100796.81;5053107;28;20024;-60
2022/07/11 06:13:44;;;;;;;22.42;4.78;;;;;;;34.92;11.72;100789.81;5054081;28;20061;-60
2022/07/11 06:16:11;;;;;;;32.00;5.68;;;;;;;34.83;12.27;100798.81;5054100;28;20104;-59
2022/07/11 06:18:39;;;;;;;31.63;5.97;;;;;;;34.76;12.50;100793.28;5054581;28;20041;-60
2022/07/11 06:21:06;;;;;;;26.67;5.70;;;;;;;34.69;12.51;100796.25;5051765;28;20078;-61
2022/07/11 06:23:34;;;;;;;27.67;5.40;;;;;;;34.53;13.36;100799.72;5053127;28;20029;-61
2022/07/11 06:26:02;;;;;;;25.77;5.50;;;;;;;34.36;13.32;100792.31;5054161;28;20028;-60
2022/07/11 06:28:29;;;;;;;21.10;5.15;;;;;;;34.25;12.97;100788.81;5054050;28;20064;-60
2022/07/11 06:30:55;;;;;;;24.65;5.55;;;;;;;34.30;12.06;100788.38;5036313;28;20387;-60
2022/07/11 06:33:22;;;;;;;18.67;4.80;;;;;;;34.34;11.95;100785.47;5054128;28;20033;-59
2022/07/11 06:35:49;;;;;;;28.50;5.35;;;;;;;34.25;12.13;100788.81;5047180;28;20021;-59
2022/07/11 06:38:16;;;;;;;27.10;4.88;;;;;;;34.18;12.31;100786.13;5053854;28;20115;-60
2022/07/11 06:40:43;;;;;;;28.20;4.75;;;;;;;34.20;11.96;100789.31;5052761;28;20033;-59
2022/07/11 06:43:10;;;;;;;17.58;4.40;;;;;;;34.12;11.09;100791.44;5054172;28;20025;-60
2022/07/11 06:45:37;;;;;;;17.15;4.25;;;;;;;34.02;11.13;100783.13;5054019;28;20025;-60
2022/07/11 06:48:05;;;;;;;19.20;4.40;;;;;;;33.94;11.71;100793.72;5053608;28;20120;-59
2022/07/11 06:50:32;;;;;;;19.27;4.00;;;;;;;33.82;12.28;100792.22;5053782;28;20021;-59
2022/07/11 06:52:59;;;;;;;26.45;4.35;;;;;;;33.73;11.66;100780.63;5053521;28;20116;-59
2022/07/11 06:55:26;;;;;;;35.97;4.40;;;;;;;33.73;11.83;100788.28;5053914;28;20052;-60
2022/07/11 06:57:53;;;;;;;52.47;5.20;;;;;;;33.63;11.61;100781.59;5052455;28;20434;-60
2022/07/11 07:00:19;;;;;;;32.53;4.32;;;;;;;33.61;11.01;100786.84;5053849;28;20467;-60
2022/07/11 07:02:46;;;;;;;24.10;3.67;;;;;;;33.58;11.37;100782.06;5053529;28;20041;-60
2022/07/11 07:05:13;;;;;;;21.50;4.10;;;;;;;33.56;11.63;100778.84;5054130;28;20096;-60
2022/07/11 07:07:40;;;;;;;22.27;3.70;;;;;;;33.46;11.22;100786.22;5053549;28;20037;-61
2022/07/11 07:10:07;;;;;;;23.48;4.03;;;;;;;33.51;12.75;100787.75;5053316;28;20031;-60
2022/07/11 07:12:39;;;;;;;17.50;3.50;;;;;;;33.50;11.57;100780.53;5054035;28;20075;-60
2022/07/11 07:15:06;;;;;;;39.17;4.38;;;;;;;33.52;11.27;100778.09;5069341;28;20400;-60
2022/07/11 07:17:33;;;;;;;16.00;3.22;;;;;;;33.45;11.00;100784.63;5053908;28;20029;-60
2022/07/11 07:20:00;;;;;;;16.00;3.20;;;;;;;33.34;11.71;100778.28;5036052;28;20040;-59
2022/07/11 07:22:26;;;;;;;13.90;3.38;;;;;;;33.22;11.17;100782.44;5053892;28;20113;-59
2022/07/11 07:24:53;;;;;;;12.20;2.60;;;;;;;33.22;10.55;100776.00;5053846;28;20200;-59
2022/07/11 07:27:20;;;;;;;17.50;2.88;;;;;;;33.13;11.23;100773.66;5052829;28;20017;-59
2022/07/11 07:29:47;;;;;;;9.48;2.63;;;;;;;33.26;11.18;100777.56;5053338;28;20504;-59
2022/07/11 07:32:13;;;;;;;6.20;1.85;;;;;;;33.43;10.77;100778.59;5053409;28;20075;-60
2022/07/11 07:34:41;;;;;;;7.50;1.90;;;;;;;33.45;11.26;100778.19;5053749;28;20562;-60
2022/07/11 07:37:08;;;;;;;6.45;1.50;;;;;;;33.16;10.22;100770.00;5053198;28;20077;-58
2022/07/11 07:39:34;;;;;;;7.50;1.73;;;;;;;33.27;10.18;100773.50;5052779;28;20087;-59
2022/07/11 07:42:01;;;;;;;7.60;1.58;;;;;;;33.33;10.15;100769.03;5053311;28;20531;-59
2022/07/11 07:44:28;;;;;;;7.40;1.67;;;;;;;33.40;10.69;100771.00;5053497;28;20478;-59
2022/07/11 07:46:55;;;;;;;6.80;1.70;;;;;;;33.47;9.64;100772.91;5053253;28;20491;-58
2022/07/11 07:49:22;;;;;;;6.82;1.88;;;;;;;33.80;9.32;100774.91;5053453;28;20043;-59
2022/07/11 07:51:48;;;;;;;6.07;1.70;;;;;;;33.91;8.94;100780.44;5052107;28;20040;-59
2022/07/11 07:54:15;;;;;;;6.80;1.60;;;;;;;33.80;9.05;100772.09;5053378;28;20460;-59
2022/07/11 07:56:42;;;;;;;7.32;1.50;;;;;;;33.79;9.13;100776.16;5053259;28;20468;-60
2022/07/11 07:59:08;;;;;;;5.18;1.65;;;;;;;33.73;9.17;100771.38;5068666;28;20028;-59
2022/07/11 08:01:35;;;;;;;5.97;1.60;;;;;;;33.71;9.32;100771.00;5052869;28;20086;-59
2022/07/11 08:04:10;;;;;;;6.03;1.77;;;;;;;33.47;9.82;100761.66;5053181;28;20033;-59
2022/07/11 08:06:37;;;;;;;20.55;2.47;;;;;;;33.41;9.77;100763.34;5053052;28;20037;-59
2022/07/11 08:09:05;;;;;;;5.95;1.35;;;;;;;33.27;10.24;100750.97;5052805;28;20456;-60
2022/07/11 08:11:33;;;;;;;18.80;2.17;;;;;;;33.33;10.36;100771.06;5052314;28;20068;-60
2022/07/11 08:14:01;;;;;;;6.40;1.40;;;;;;;33.42;10.04;100764.94;5051949;28;20375;-59
2022/07/11 08:16:31;;;;;;;11.60;1.92;;;;;;;33.17;10.46;100765.97;5052761;28;20029;-59
2022/07/11 08:18:59;;;;;;;3.67;1.10;;;;;;;33.24;10.37;100768.72;5052994;28;20035;-59
2022/07/11 08:21:27;;;;;;;5.28;1.23;;;;;;;33.35;10.30;100768.63;5052793;28;20033;-60
2022/07/11 08:23:55;;;;;;;4.75;1.30;;;;;;;33.23;10.45;100769.94;5052600;28;20035;-59
2022/07/11 08:26:21;;;;;;;11.07;1.40;;;;;;;33.29;10.72;100765.44;5052835;28;20063;-58
2022/07/11 08:28:48;;;;;;;5.57;1.30;;;;;;;33.18;11.26;100764.75;5052872;28;20029;-59
2022/07/11 08:31:15;;;;;;;4.45;1.13;;;;;;;32.99;11.86;100770.97;5052563;28;20052;-59
2022/07/11 08:33:41;;;;;;;5.07;1.10;;;;;;;32.63;11.79;100771.25;5052388;28;20033;-60
2022/07/11 08:36:08;;;;;;;26.63;2.33;;;;;;;32.49;11.55;100771.38;5052580;28;20025;-60
2022/07/11 08:38:34;;;;;;;12.98;1.60;;;;;;;32.29;12.59;100764.69;5051634;28;20044;-58
2022/07/11 08:41:02;;;;;;;11.30;1.60;;;;;;;32.27;12.74;100761.50;5052569;28;20051;-61
2022/07/11 08:43:30;;;;;;;5.30;1.30;;;;;;;32.20;12.40;100764.34;5052496;28;20029;-58
2022/07/11 08:45:57;;;;;;;20.70;2.00;;;;;;;32.10;13.45;100752.72;5052491;28;20028;-58
2022/07/11 08:48:24;;;;;;;4.78;1.27;;;;;;;32.19;13.52;100757.09;5052575;28;20458;-58
2022/07/11 08:50:51;;;;;;;43.10;3.47;;;;;;;32.16;13.37;100748.28;5052435;28;20033;-60
2022/07/11 08:53:18;;;;;;;10.85;1.65;;;;;;;32.32;12.87;100747.00;5052215;28;20115;-60
2022/07/11 08:55:46;;;;;;;7.38;1.55;;;;;;;32.17;13.33;100746.28;5052439;28;20025;-61
2022/07/11 08:58:14;;;;;;;6.50;1.35;;;;;;;31.97;12.88;100746.00;5051256;28;20097;-60
2022/07/11 09:00:45;;;;;;;4.07;1.10;;;;;;;31.96;13.07;100749.19;5052338;28;20036;-60
2022/07/11 09:03:15;;;;;;;9.60;1.50;;;;;;;31.98;12.89;100739.16;5052440;28;20044;-60
2022/07/11 09:05:43;;;;;;;15.25;1.85;;;;;;;31.88;13.45;100737.19;5052053;28;20032;-60
2022/07/11 09:08:10;;;;;;;17.90;1.98;;;;;;;31.71;13.41;100730.44;5051883;28;20036;-60
2022/07/11 09:10:40;;;;;;;10.20;1.50;;;;;;;31.60;13.50;100734.50;5052174;28;20048;-60
2022/07/11 09:13:11;;;;;;;4.72;1.52;;;;;;;31.45;13.98;100728.94;5052433;28;20037;-60
2022/07/11 09:15:44;;;;;;;3.60;1.40;;;;;;;31.42;14.26;100735.41;5052238;28;20085;-60
2022/07/11 09:18:26;;;;;;;6.18;1.35;;;;;;;31.50;13.44;100731.34;5052216;28;20029;-60
2022/07/11 09:26:39;;;;;;;4.90;1.50;;;;;;;31.19;13.99;100732.22;5051964;28;20033;-60
2022/07/11 09:29:11;;;;;;;3.45;1.40;;;;;;;31.27;14.28;100733.84;5052285;28;20041;-60
2022/07/11 09:31:40;;;;;;;6.18;1.67;;;;;;;31.34;14.10;100733.81;5051842;28;20049;-59
2022/07/11 09:34:15;;;;;;;9.95;1.55;;;;;;;31.52;13.83;100728.13;5051897;28;20032;-60
2022/07/11 09:36:47;;;;;;;8.27;2.10;;;;;;;31.23;14.54;100735.81;5051554;28;20049;-59
2022/07/11 09:39:16;;;;;;;8.57;3.30;;;;;;;31.03;15.02;100734.66;5050405;28;20094;-59
2022/07/11 09:41:44;;;;;;;12.48;3.22;;;;;;;30.70;14.99;100727.47;5034067;28;20025;-60
2022/07/11 09:44:12;;;;;;;7.15;2.33;;;;;;;30.62;14.99;100732.28;5052051;28;20037;-60
2022/07/11 09:46:40;;;;;;;10.07;2.58;;;;;;;30.55;15.34;100733.09;5051970;28;20028;-59
2022/07/11 09:49:08;;;;;;;8.75;2.58;;;;;;;30.43;15.75;100730.66;5051831;28;20029;-59
2022/07/11 09:51:37;;;;;;;12.20;3.10;;;;;;;30.35;15.54;100729.06;5054978;28;20029;-60
2022/07/11 09:54:04;;;;;;;11.27;3.42;;;;;;;30.35;16.39;100729.88;5055510;28;20025;-60
2022/07/11 09:56:31;;;;;;;17.70;3.95;;;;;;;30.28;15.15;100735.44;5055571;28;20083;-59
2022/07/11 09:59:04;;;;;;;12.82;4.00;;;;;;;30.27;15.31;100735.84;5055499;28;20037;-59
2022/07/11 10:01:31;;;;;;;11.73;4.22;;;;;;;30.26;15.53;100731.44;5055355;28;20037;-60
2022/07/11 10:03:59;;;;;;;13.38;3.95;;;;;;;30.21;15.35;100732.66;5055182;28;20502;-60
2022/07/11 10:06:26;;;;;;;17.58;4.05;;;;;;;30.23;15.28;100733.06;5055294;28;20116;-60
2022/07/11 10:08:54;;;;;;;14.45;3.75;;;;;;;30.15;15.43;100733.44;5055042;28;20489;-60
2022/07/11 10:11:21;;;;;;;18.15;3.67;;;;;;;30.08;15.56;100732.22;5055232;28;20044;-61
2022/07/11 10:13:48;;;;;;;21.55;4.20;;;;;;;30.09;15.63;100721.81;5055240;28;20033;-59
2022/07/11 10:16:22;;;;;;;21.10;4.60;;;;;;;30.13;15.93;100725.41;5054249;28;20174;-61
2022/07/11 10:19:08;;;;;;;11.10;3.85;;;;;;;30.00;15.88;100724.97;5055245;28;20047;-60
2022/07/11 10:22:17;;;;;;;15.35;4.10;;;;;;;29.89;15.95;100731.75;5054969;28;20112;-60
2022/07/11 10:24:53;;;;;;;15.90;4.30;;;;;;;29.92;16.96;100723.34;5019746;28;20048;-59
2022/07/11 10:27:35;;;;;;;27.25;4.72;;;;;;;29.89;16.45;100724.16;5054960;28;20025;-59
2022/07/11 10:30:02;;;;;;;20.77;4.30;;;;;;;29.82;16.51;100724.13;5054918;28;20033;-59
2022/07/11 10:32:29;;;;;;;22.83;4.40;;;;;;;29.92;16.72;100722.53;5054687;28;20499;-60
2022/07/11 10:35:16;;;;;;;23.40;4.28;;;;;;;29.92;16.44;100725.34;5054865;28;20434;-60
2022/07/11 10:37:47;;;;;;;16.98;3.72;;;;;;;29.78;16.70;100721.31;5054260;28;20048;-60
2022/07/11 10:40:14;;;;;;;15.07;4.10;;;;;;;29.73;18.29;100721.69;5054766;28;20047;-60
2022/07/11 10:42:42;;;;;;;17.40;3.83;;;;;;;29.65;17.07;100724.88;5055050;28;20106;-60
2022/07/11 10:45:11;;;;;;;15.65;3.40;;;;;;;29.63;16.85;100730.88;5054607;28;20489;-60
2022/07/11 10:47:43;;;;;;;12.77;3.80;;;;;;;29.56;17.13;100733.63;5053088;28;20098;-60
2022/07/11 10:50:22;;;;;;;13.38;4.05;;;;;;;29.45;17.47;100725.22;5054473;28;20037;-61
2022/07/11 10:52:49;;;;;;;16.30;3.67;;;;;;;29.50;17.38;100726.00;5054503;28;20044;-58
2022/07/11 10:55:22;;;;;;;15.73;3.90;;;;;;;29.55;17.57;100726.44;5054490;28;20044;-60
2022/07/11 10:58:13;;;;;;;34.33;4.38;;;;;;;29.55;17.83;100728.44;5054207;28;20098;-60
2022/07/11 11:00:40;;;;;;;13.73;2.80;;;;;;;29.48;18.06;100721.63;5054103;28;20033;-61
2022/07/11 11:03:09;;;;;;;18.90;2.83;;;;;;;29.43;18.30;100718.34;5054243;28;20063;-62
2022/07/11 11:05:49;;;;;;;42.97;3.90;;;;;;;29.41;18.38;100717.94;5054122;28;20479;-59
2022/07/11 11:08:36;;;;;;;9.27;2.20;;;;;;;29.42;18.54;100727.94;5054094;28;20102;-59
2022/07/11 11:11:06;;;;;;;15.05;2.10;;;;;;;29.42;18.36;100711.94;5054094;28;20082;-60
2022/07/11 11:13:35;;;;;;;21.33;2.53;;;;;;;29.39;18.38;100720.31;5053922;28;20499;-60
2022/07/11 11:16:17;;;;;;;13.75;2.28;;;;;;;29.28;18.91;100722.28;5053966;28;20545;-60
2022/07/11 11:18:44;;;;;;;10.35;2.15;;;;;;;29.31;18.70;100721.50;5054272;28;20135;-60
2022/07/11 11:21:21;;;;;;;9.32;2.28;;;;;;;29.30;18.99;100726.28;5053923;28;20365;-60
2022/07/11 11:24:01;;;;;;;17.10;2.45;;;;;;;29.25;18.84;100726.66;5053805;28;20059;-60
2022/07/11 11:26:46;;;;;;;15.82;2.30;;;;;;;29.21;19.37;100716.63;5053889;28;20128;-59
2022/07/11 11:29:19;;;;;;;11.20;1.90;;;;;;;29.15;19.38;100733.81;5053822;28;20041;-59
2022/07/11 11:31:51;;;;;;;9.63;2.35;;;;;;;29.20;19.08;100721.44;5068878;28;20076;-59
2022/07/11 11:34:19;;;;;;;15.65;2.17;;;;;;;29.23;19.82;100729.03;5053598;28;20126;-59